Time;durP1;ratioP1;P1;durP2;ratioP2;P2;SDS_P1;SDS_P2;PMS_P1;PMS_P2;Temp;Humidity;BMP_temperature;BMP_pressure;BME280_temperature;BME280_humidity;BME280_pressure;Samples;Min_cycle;Max_cycle;Signal;HPM_P1;HPM_P2
2022/05/19 00:02:12;;;;;;;11.63;4.78;;;;;;;22.73;52.84;98998.34;5032042;28;20098;-49
2022/05/19 00:04:38;;;;;;;10.93;4.63;;;;;;;22.70;53.22;98993.53;5014182;28;20026;-49
2022/05/19 00:07:05;;;;;;;11.05;4.93;;;;;;;22.67;53.37;99002.91;5031948;28;20022;-48
2022/05/19 00:09:31;;;;;;;14.55;5.03;;;;;;;22.62;53.61;99002.94;5031973;28;20078;-48
2022/05/19 00:12:00;;;;;;;8.52;4.88;;;;;;;22.56;53.64;98989.81;5031782;28;20033;-48
2022/05/19 00:14:25;;;;;;;8.98;4.13;;;;;;;22.50;53.97;98997.88;5031815;28;20083;-49
2022/05/19 00:16:56;;;;;;;10.23;4.65;;;;;;;22.46;54.27;98998.69;5031603;28;20128;-49
2022/05/19 00:19:22;;;;;;;12.98;5.03;;;;;;;22.43;54.36;99005.34;5031818;28;20028;-49
2022/05/19 00:21:48;;;;;;;11.35;4.95;;;;;;;22.41;54.47;99012.84;5031790;28;20836;-48
2022/05/19 00:24:15;;;;;;;14.15;5.07;;;;;;;22.40;54.25;99013.16;5031731;28;20041;-48
2022/05/19 00:26:41;;;;;;;11.38;4.40;;;;;;;22.37;54.41;99009.13;5013906;28;20033;-49
2022/05/19 00:29:07;;;;;;;9.73;4.45;;;;;;;22.33;54.60;99016.91;5014005;28;20029;-48
2022/05/19 00:31:33;;;;;;;13.57;5.05;;;;;;;22.31;54.78;99027.03;5031620;28;20022;-49
2022/05/19 00:34:03;;;;;;;10.90;5.57;;;;;;;22.28;54.67;99021.44;5031709;28;20021;-48
2022/05/19 00:36:29;;;;;;;17.23;5.55;;;;;;;22.27;54.68;99014.47;5031670;28;20389;-49
2022/05/19 00:38:55;;;;;;;9.50;4.40;;;;;;;22.21;54.61;99029.69;5031663;28;20029;-48
2022/05/19 00:41:21;;;;;;;11.07;4.70;;;;;;;22.16;54.74;99020.91;5034507;28;20048;-48
2022/05/19 00:44:01;;;;;;;8.27;4.60;;;;;;;22.11;55.01;99024.34;5018149;28;20040;-48
2022/05/19 00:46:53;;;;;;;8.23;4.68;;;;;;;22.08;54.88;99017.66;5035642;28;20079;-48
2022/05/19 00:49:27;;;;;;;9.55;4.47;;;;;;;22.07;54.91;99033.97;5017819;28;20035;-49
2022/05/19 00:52:08;;;;;;;11.02;4.95;;;;;;;22.02;54.83;99015.28;5035473;28;20025;-49
2022/05/19 00:54:44;;;;;;;13.13;4.95;;;;;;;22.01;54.65;99025.13;5035510;28;20025;-48
2022/05/19 00:57:29;;;;;;;13.93;5.25;;;;;;;22.01;54.71;99025.13;5035357;28;20495;-48
2022/05/19 00:59:59;;;;;;;15.52;4.72;;;;;;;22.03;54.77;99027.56;5035476;28;20028;-49
2022/05/19 01:02:31;;;;;;;10.85;4.68;;;;;;;21.98;54.71;99024.91;5035273;28;20033;-48
2022/05/19 01:05:05;;;;;;;11.90;5.35;;;;;;;21.98;54.69;99022.22;5017489;28;20380;-49
2022/05/19 01:07:43;;;;;;;8.98;4.43;;;;;;;21.94;54.75;99016.59;5035334;28;20507;-48
2022/05/19 01:10:09;;;;;;;10.90;4.78;;;;;;;21.92;54.81;99022.22;5017286;28;20036;-49
2022/05/19 01:12:38;;;;;;;10.43;4.78;;;;;;;21.88;54.67;99023.00;5017242;28;20092;-49
2022/05/19 01:15:04;;;;;;;12.15;4.18;;;;;;;21.84;54.67;99019.28;5035316;28;20075;-48
2022/05/19 01:17:35;;;;;;;10.35;5.28;;;;;;;21.84;54.71;99024.63;5013886;28;20411;-48
2022/05/19 01:20:23;;;;;;;11.48;5.00;;;;;;;21.82;54.50;99026.75;5013952;28;20115;-46
2022/05/19 01:22:55;;;;;;;11.35;4.53;;;;;;;21.82;54.79;99024.09;5014235;28;20392;-47
2022/05/19 01:25:47;;;;;;;14.05;5.20;;;;;;;21.81;54.53;99031.31;5013810;28;20161;-48
2022/05/19 01:28:14;;;;;;;13.05;4.65;;;;;;;21.80;54.38;99031.56;5013760;28;20053;-47
2022/05/19 01:30:40;;;;;;;10.95;4.47;;;;;;;21.76;54.62;99031.28;5014916;28;20018;-47
2022/05/19 01:33:07;;;;;;;8.50;4.38;;;;;;;21.74;54.77;99039.56;5015170;28;20518;-47
2022/05/19 01:35:35;;;;;;;12.15;5.07;;;;;;;21.72;54.85;99032.88;5014937;28;20452;-46
2022/05/19 01:38:06;;;;;;;13.30;4.57;;;;;;;21.67;54.73;99031.00;5014795;28;20053;-47
2022/05/19 01:40:54;;;;;;;10.23;4.15;;;;;;;21.64;55.07;99039.53;5013544;28;20022;-47
2022/05/19 01:43:40;;;;;;;11.48;5.80;;;;;;;21.59;54.93;99036.06;5013551;28;20033;-47
2022/05/19 01:46:15;;;;;;;12.95;4.75;;;;;;;21.53;54.98;99030.72;5013432;28;20030;-47
2022/05/19 01:48:52;;;;;;;12.30;4.72;;;;;;;21.51;55.12;99032.03;5014807;28;20034;-46
2022/05/19 01:51:36;;;;;;;10.88;5.18;;;;;;;21.48;55.23;99040.56;5014122;28;20029;-46
2022/05/19 01:54:18;;;;;;;15.23;5.10;;;;;;;21.41;55.39;99032.78;5013311;28;20407;-47
2022/05/19 01:57:01;;;;;;;13.55;4.53;;;;;;;21.38;55.34;99032.50;5014608;28;20022;-47
2022/05/19 01:59:39;;;;;;;9.23;3.95;;;;;;;21.34;55.41;99032.22;5013267;28;20030;-47
2022/05/19 02:02:42;;;;;;;18.80;5.28;;;;;;;21.28;55.40;99036.75;5014414;28;20053;-47
2022/05/19 02:05:18;;;;;;;11.27;4.85;;;;;;;21.22;55.72;99037.78;5013106;28;20030;-47
2022/05/19 02:07:48;;;;;;;9.00;4.43;;;;;;;21.18;55.72;99042.03;5014386;28;20022;-47
2022/05/19 02:10:21;;;;;;;10.90;5.38;;;;;;;21.14;55.83;99039.09;5014791;28;20048;-47
2022/05/19 02:12:49;;;;;;;11.70;4.93;;;;;;;21.12;55.38;99045.75;5014304;28;20140;-47
2022/05/19 02:15:19;;;;;;;12.10;4.30;;;;;;;21.15;55.27;99040.72;5014183;28;20064;-47
2022/05/19 02:17:47;;;;;;;13.73;5.38;;;;;;;21.19;55.19;99050.84;5030421;28;20047;-47
2022/05/19 02:20:20;;;;;;;10.25;5.38;;;;;;;21.23;55.13;99049.25;5033893;28;20029;-47
2022/05/19 02:22:46;;;;;;;11.25;4.90;;;;;;;21.22;54.99;99045.00;5033882;28;20086;-47
2022/05/19 02:25:18;;;;;;;11.10;4.43;;;;;;;21.20;55.10;99047.13;5015928;28;20030;-47
2022/05/19 02:27:53;;;;;;;9.23;4.10;;;;;;;21.17;55.16;99052.97;5033774;28;20068;-47
2022/05/19 02:30:24;;;;;;;11.30;5.20;;;;;;;21.12;55.06;99061.78;5033616;28;20021;-46
2022/05/19 02:32:50;;;;;;;20.95;4.43;;;;;;;21.11;55.22;99063.66;5033692;28;20575;-47
2022/05/19 02:35:17;;;;;;;10.45;4.53;;;;;;;21.09;55.19;99064.97;4999580;28;20057;-47
2022/05/19 02:37:43;;;;;;;14.55;5.40;;;;;;;21.07;55.36;99067.91;5033525;28;20095;-47
2022/05/19 02:40:11;;;;;;;10.95;4.70;;;;;;;21.03;55.43;99071.34;5015643;28;20025;-46
2022/05/19 02:42:37;;;;;;;11.45;4.30;;;;;;;21.03;55.25;99071.34;5033489;28;20076;-47
2022/05/19 02:45:04;;;;;;;9.80;4.65;;;;;;;21.00;55.00;99071.84;5033424;28;20021;-47
2022/05/19 02:47:30;;;;;;;19.90;4.70;;;;;;;21.03;54.59;99071.34;5015573;28;20030;-47
2022/05/19 02:49:56;;;;;;;12.93;4.97;;;;;;;21.08;54.65;99080.16;5033297;28;20022;-47
2022/05/19 02:52:23;;;;;;;14.35;4.95;;;;;;;21.11;54.43;99070.84;5033382;28;20036;-46
2022/05/19 02:54:49;;;;;;;10.63;4.68;;;;;;;21.15;54.24;99072.72;5015453;28;20498;-49
2022/05/19 02:57:14;;;;;;;18.35;5.13;;;;;;;21.16;54.33;99073.53;5033209;28;20036;-48
2022/05/19 02:59:40;;;;;;;11.15;4.88;;;;;;;21.19;54.55;99075.69;5033186;28;20033;-49
2022/05/19 03:02:06;;;;;;;10.43;5.07;;;;;;;21.19;54.37;99083.69;5032743;28;20509;-48
2022/05/19 03:04:32;;;;;;;10.02;3.90;;;;;;;21.13;54.27;99082.06;5032524;28;20017;-49
2022/05/19 03:06:57;;;;;;;10.63;5.15;;;;;;;21.12;54.25;99085.78;5032991;28;20044;-48
2022/05/19 03:09:23;;;;;;;11.57;4.90;;;;;;;21.08;54.49;99084.69;5015162;28;20112;-49
2022/05/19 03:11:49;;;;;;;14.20;4.93;;;;;;;21.06;54.46;99097.50;5032796;28;20021;-48
2022/05/19 03:14:15;;;;;;;9.23;4.88;;;;;;;21.03;54.57;99106.84;5015066;28;20108;-48
2022/05/19 03:16:41;;;;;;;8.73;4.72;;;;;;;21.01;54.66;99106.28;5032462;28;20411;-49
2022/05/19 03:19:09;;;;;;;11.07;4.88;;;;;;;20.99;54.70;99104.91;5032775;28;20111;-48
2022/05/19 03:21:36;;;;;;;13.13;5.68;;;;;;;20.96;54.86;99108.91;5032681;28;20794;-48
2022/05/19 03:24:02;;;;;;;13.88;4.65;;;;;;;20.98;55.02;99103.34;5032693;28;20033;-48
2022/05/19 03:26:28;;;;;;;12.40;5.40;;;;;;;20.99;55.02;99108.41;5014825;28;20499;-48
2022/05/19 03:28:54;;;;;;;12.35;4.30;;;;;;;21.00;55.08;99111.88;5032581;28;20029;-48
2022/05/19 03:31:19;;;;;;;12.65;4.68;;;;;;;21.03;54.92;99114.84;5014655;28;20028;-49
2022/05/19 03:33:45;;;;;;;7.32;4.50;;;;;;;21.06;55.14;99110.84;5032464;28;20029;-48
2022/05/19 03:36:12;;;;;;;11.15;5.00;;;;;;;21.06;55.14;99105.50;5014620;28;20036;-48
2022/05/19 03:38:41;;;;;;;11.18;5.10;;;;;;;21.05;55.07;99102.03;5032429;28;20096;-49
2022/05/19 03:41:06;;;;;;;15.27;5.55;;;;;;;21.03;55.31;99112.19;5014569;28;20022;-48
2022/05/19 03:43:32;;;;;;;12.52;5.43;;;;;;;21.01;55.27;99111.63;5014550;28;20045;-47
2022/05/19 03:46:01;;;;;;;9.02;4.72;;;;;;;20.99;55.44;99113.75;5014474;28;20109;-49
2022/05/19 03:48:35;;;;;;;10.70;4.70;;;;;;;20.98;55.44;99106.78;5032249;28;20571;-48
2022/05/19 03:51:05;;;;;;;13.10;5.50;;;;;;;20.96;55.31;99111.59;5032156;28;20024;-48
2022/05/19 03:53:31;;;;;;;11.13;4.80;;;;;;;20.94;55.39;99111.03;5014426;28;20441;-48
2022/05/19 03:55:57;;;;;;;12.13;4.70;;;;;;;20.91;55.43;99109.69;5032120;28;20025;-49
2022/05/19 03:58:23;;;;;;;9.55;5.65;;;;;;;20.86;55.42;99112.31;5014317;28;20037;-48
2022/05/19 04:00:49;;;;;;;13.50;5.70;;;;;;;20.83;55.47;99114.72;5032071;28;20025;-48
2022/05/19 04:03:15;;;;;;;10.55;5.50;;;;;;;20.78;55.66;99112.81;5032217;28;20107;-49
2022/05/19 04:05:41;;;;;;;9.60;5.55;;;;;;;20.78;55.78;99112.00;5032011;28;20052;-48
2022/05/19 04:08:07;;;;;;;11.73;4.63;;;;;;;20.77;55.83;99110.41;5014210;28;20029;-48
2022/05/19 04:10:33;;;;;;;12.35;4.95;;;;;;;20.77;55.84;99108.53;5031866;28;20014;-48
2022/05/19 04:12:59;;;;;;;7.72;4.70;;;;;;;20.79;55.84;99109.09;5031916;28;20036;-48
2022/05/19 04:15:26;;;;;;;13.00;4.90;;;;;;;20.80;55.62;99116.03;5031780;28;20055;-49
2022/05/19 04:17:52;;;;;;;11.85;5.25;;;;;;;20.85;55.48;99116.06;5031584;28;20064;-49
2022/05/19 04:20:17;;;;;;;13.10;5.43;;;;;;;20.87;55.60;99110.47;5031792;28;20398;-49
2022/05/19 04:22:43;;;;;;;9.07;4.45;;;;;;;20.94;55.27;99116.38;5031869;28;20045;-49
2022/05/19 04:25:11;;;;;;;13.27;5.57;;;;;;;20.95;55.20;99126.81;5031771;28;20030;-49
2022/05/19 04:27:37;;;;;;;12.95;5.47;;;;;;;20.98;55.16;99136.16;5031756;28;20029;-48
2022/05/19 04:30:04;;;;;;;18.50;5.43;;;;;;;21.04;54.96;99140.44;5013889;28;20021;-49
2022/05/19 04:32:30;;;;;;;12.30;4.82;;;;;;;21.13;54.65;99151.47;5031763;28;20044;-49
2022/05/19 04:34:56;;;;;;;16.02;6.82;;;;;;;21.22;54.41;99163.25;5031671;28;20506;-48
2022/05/19 04:37:21;;;;;;;23.08;6.65;;;;;;;21.33;54.34;99170.25;5013942;28;20064;-49
2022/05/19 04:39:47;;;;;;;14.27;6.38;;;;;;;21.45;54.24;99177.28;5013878;28;20490;-48
2022/05/19 04:42:13;;;;;;;13.48;6.38;;;;;;;21.58;54.34;99165.34;5031594;28;20018;-48
2022/05/19 04:44:40;;;;;;;19.73;7.60;;;;;;;21.65;54.17;99173.91;5031604;28;20119;-49
2022/05/19 04:47:06;;;;;;;15.00;6.40;;;;;;;21.68;53.91;99171.50;5031539;28;20029;-48
2022/05/19 04:49:33;;;;;;;24.35;9.90;;;;;;;21.72;53.68;99175.25;5013750;28;20025;-48
2022/05/19 04:51:58;;;;;;;17.77;6.70;;;;;;;21.77;53.59;99181.69;5031421;28;20554;-49
2022/05/19 04:54:24;;;;;;;13.48;7.78;;;;;;;21.84;53.45;99176.91;5013746;28;20116;-48
2022/05/19 04:56:50;;;;;;;16.88;9.02;;;;;;;21.95;53.02;99173.19;5031483;28;20096;-48
2022/05/19 04:59:17;;;;;;;14.73;6.72;;;;;;;22.07;52.77;99175.63;5031463;28;20026;-49
2022/05/19 05:01:44;;;;;;;18.90;7.43;;;;;;;22.19;52.41;99184.22;5031444;28;20036;-48
2022/05/19 05:04:11;;;;;;;15.10;6.68;;;;;;;22.32;52.00;99178.41;5013624;28;20036;-48
2022/05/19 05:06:37;;;;;;;9.52;5.72;;;;;;;22.41;51.83;99178.66;5031380;28;20025;-48
2022/05/19 05:09:02;;;;;;;18.00;6.20;;;;;;;22.51;51.62;99183.22;5031369;28;20394;-48
2022/05/19 05:11:28;;;;;;;14.82;5.20;;;;;;;22.62;51.03;99192.88;5013491;28;20037;-49
2022/05/19 05:13:54;;;;;;;19.00;6.32;;;;;;;22.72;50.91;99194.75;5013539;28;20518;-49
2022/05/19 05:16:20;;;;;;;15.88;8.05;;;;;;;22.92;50.54;99196.63;5013301;28;20132;-48
2022/05/19 05:18:46;;;;;;;13.57;5.75;;;;;;;23.07;50.10;99199.28;5031245;28;20030;-48
2022/05/19 05:21:13;;;;;;;16.13;5.32;;;;;;;23.14;49.91;99201.72;5031258;28;20064;-49
2022/05/19 05:23:40;;;;;;;13.13;5.43;;;;;;;23.24;49.38;99206.22;5031259;28;20036;-49
2022/05/19 05:26:07;;;;;;;16.80;6.07;;;;;;;23.27;49.14;99197.66;5031933;28;20076;-47
2022/05/19 05:28:33;;;;;;;14.90;6.65;;;;;;;23.39;49.44;99197.38;5034892;28;20462;-47
2022/05/19 05:31:00;;;;;;;16.08;6.97;;;;;;;23.87;48.49;99195.88;5034589;28;20021;-47
2022/05/19 05:33:26;;;;;;;12.60;6.90;;;;;;;24.61;46.53;99201.38;5017015;28;20053;-47
2022/05/19 05:35:52;;;;;;;10.50;5.35;;;;;;;25.19;45.23;99205.94;5034710;28;20018;-47
2022/05/19 05:38:20;;;;;;;13.75;6.20;;;;;;;25.48;44.31;99205.16;5034570;28;20112;-47
2022/05/19 05:40:50;;;;;;;13.15;5.68;;;;;;;25.31;44.66;99202.91;5016779;28;20025;-47
2022/05/19 05:43:18;;;;;;;12.55;6.10;;;;;;;24.85;45.39;99206.00;5034486;28;20034;-47
2022/05/19 05:45:45;;;;;;;11.80;5.32;;;;;;;24.44;46.12;99209.75;5034401;28;20021;-47
2022/05/19 05:48:12;;;;;;;15.50;6.43;;;;;;;24.19;46.65;99213.41;5034536;28;20025;-47
2022/05/19 05:50:38;;;;;;;14.75;5.45;;;;;;;23.95;47.52;99210.59;5034394;28;20100;-47
2022/05/19 05:53:06;;;;;;;10.70;5.28;;;;;;;23.73;48.05;99201.00;5034407;28;20029;-47
2022/05/19 05:55:33;;;;;;;20.15;6.50;;;;;;;23.50;48.21;99198.94;5016116;28;20041;-47
2022/05/19 05:57:59;;;;;;;11.38;5.70;;;;;;;23.31;48.98;99212.91;5034273;28;20033;-47
2022/05/19 06:00:26;;;;;;;18.73;6.80;;;;;;;23.16;49.09;99212.97;5034332;28;20033;-47
2022/05/19 06:02:51;;;;;;;17.58;6.50;;;;;;;23.07;49.51;99206.53;5034243;28;20022;-47
2022/05/19 06:05:18;;;;;;;16.42;7.18;;;;;;;23.04;49.75;99205.22;5016317;28;20037;-47
2022/05/19 06:07:44;;;;;;;14.00;5.25;;;;;;;23.05;49.82;99216.72;5016363;28;20026;-47
2022/05/19 06:10:12;;;;;;;16.02;5.43;;;;;;;23.04;49.56;99209.72;5016227;28;20030;-47
2022/05/19 06:12:39;;;;;;;11.88;4.95;;;;;;;23.04;49.52;99212.41;5034320;28;20041;-47
2022/05/19 06:15:05;;;;;;;16.88;5.82;;;;;;;23.10;49.56;99204.13;5033988;28;20593;-47
2022/05/19 06:17:32;;;;;;;8.57;4.53;;;;;;;23.58;48.57;99197.56;5033753;28;20052;-46
2022/05/19 06:19:57;;;;;;;13.90;5.88;;;;;;;23.87;47.46;99205.81;5033924;28;20589;-47
2022/05/19 06:22:23;;;;;;;11.65;5.68;;;;;;;23.86;47.32;99207.66;5016062;28;20119;-47
2022/05/19 06:24:50;;;;;;;15.48;6.40;;;;;;;24.10;47.08;99215.06;5033811;28;20029;-47
2022/05/19 06:27:17;;;;;;;11.13;4.65;;;;;;;24.41;46.31;99221.06;5015970;28;20037;-46
2022/05/19 06:29:43;;;;;;;13.52;5.13;;;;;;;25.16;44.83;99211.91;5033770;28;20018;-47
2022/05/19 06:32:10;;;;;;;14.48;5.10;;;;;;;25.40;43.83;99228.06;5033586;28;20043;-47
2022/05/19 06:34:36;;;;;;;14.27;4.93;;;;;;;25.30;43.99;99226.28;5033668;28;20025;-47
2022/05/19 06:37:02;;;;;;;16.73;4.43;;;;;;;25.17;44.22;99239.56;5033104;28;20379;-47
2022/05/19 06:39:29;;;;;;;14.82;4.63;;;;;;;25.07;43.94;99243.13;5032783;28;20026;-47
2022/05/19 06:42:01;;;;;;;16.63;5.07;;;;;;;25.64;43.80;99249.59;5033434;28;20108;-47
2022/05/19 06:44:46;;;;;;;10.57;3.92;;;;;;;27.85;38.79;99238.13;5033428;28;20424;-47
2022/05/19 06:47:16;;;;;;;20.98;5.60;;;;;;;28.09;38.42;99251.41;5033438;28;20023;-47
2022/05/19 06:49:47;;;;;;;23.42;5.18;;;;;;;28.47;37.41;99261.91;5033382;28;20529;-47
2022/05/19 06:52:19;;;;;;;19.90;4.47;;;;;;;28.35;37.62;99259.72;5033074;28;20033;-47
2022/05/19 06:54:51;;;;;;;17.30;5.53;;;;;;;29.18;36.31;99253.25;5033288;28;20025;-50
2022/05/19 06:57:19;;;;;;;16.70;4.50;;;;;;;29.59;35.25;99266.47;5033181;28;20214;-50
2022/05/19 06:59:47;;;;;;;15.40;4.30;;;;;;;29.31;35.93;99273.19;5033170;28;20049;-47
2022/05/19 07:02:13;;;;;;;17.45;5.22;;;;;;;28.93;35.74;99265.47;5032925;28;20026;-48
2022/05/19 07:04:39;;;;;;;15.30;4.00;;;;;;;28.51;37.04;99262.13;5015230;28;20470;-47
2022/05/19 07:07:06;;;;;;;14.90;4.45;;;;;;;28.30;37.35;99270.66;5015182;28;20044;-47
2022/05/19 07:09:35;;;;;;;13.10;3.90;;;;;;;29.03;35.73;99270.59;5032992;28;20025;-47
2022/05/19 07:12:01;;;;;;;10.80;4.07;;;;;;;28.68;35.71;99270.38;5032838;28;20026;-47
2022/05/19 07:14:28;;;;;;;11.18;4.28;;;;;;;28.20;36.66;99276.28;5032894;28;20029;-47
2022/05/19 07:16:54;;;;;;;22.60;6.07;;;;;;;27.67;37.65;99278.38;5014717;28;20045;-49
2022/05/19 07:22:08;;;;;;;7.95;3.80;;;;;;;26.97;39.15;99278.53;5001741;28;20045;-47
2022/05/19 07:24:34;;;;;;;19.88;5.50;;;;;;;26.89;39.34;99290.75;5032599;28;20079;-47
2022/05/19 07:27:00;;;;;;;12.63;5.53;;;;;;;26.72;39.97;99293.19;5032599;28;20487;-47
2022/05/19 07:29:27;;;;;;;15.07;5.25;;;;;;;26.58;40.33;99290.41;5015179;28;20467;-47
2022/05/19 07:32:01;;;;;;;21.27;6.07;;;;;;;26.46;40.53;99293.50;5014474;28;20061;-47
2022/05/19 07:34:29;;;;;;;8.73;4.13;;;;;;;26.44;40.22;99287.63;5032521;28;20068;-49
2022/05/19 07:36:57;;;;;;;18.20;5.15;;;;;;;26.60;40.05;99286.34;5014939;28;20034;-48
2022/05/19 07:39:25;;;;;;;12.23;4.97;;;;;;;26.70;39.97;99282.69;5032431;28;20026;-47
2022/05/19 07:41:54;;;;;;;15.57;5.43;;;;;;;26.64;39.82;99282.00;5032432;28;20049;-47
2022/05/19 07:44:20;;;;;;;15.95;6.05;;;;;;;26.81;39.63;99281.44;5032500;28;20403;-49
2022/05/19 07:46:46;;;;;;;13.38;4.10;;;;;;;27.12;39.33;99288.25;5032299;28;20032;-49
2022/05/19 07:49:12;;;;;;;14.65;4.13;;;;;;;27.36;38.52;99286.22;5031860;28;20495;-48
2022/05/19 07:51:40;;;;;;;20.45;5.97;;;;;;;27.54;38.06;99292.66;5014488;28;20025;-48
2022/05/19 07:54:14;;;;;;;8.70;3.60;;;;;;;27.70;36.94;99290.47;5032257;28;20025;-49
2022/05/19 07:56:41;;;;;;;7.82;3.65;;;;;;;27.88;36.79;99289.59;5032237;28;20021;-47
2022/05/19 07:59:09;;;;;;;12.35;3.75;;;;;;;28.25;36.25;99281.56;5031980;28;20046;-48
2022/05/19 08:01:36;;;;;;;10.98;3.78;;;;;;;28.16;36.13;99286.09;5032097;28;20117;-47
2022/05/19 08:04:02;;;;;;;11.82;6.63;;;;;;;28.04;36.33;99290.09;5032022;28;20057;-47
2022/05/19 08:06:30;;;;;;;11.68;4.03;;;;;;;28.27;35.71;99284.75;5031903;28;20056;-49
2022/05/19 08:09:00;;;;;;;12.52;4.07;;;;;;;29.58;34.19;99278.41;5031993;28;20371;-48
2022/05/19 08:11:27;;;;;;;14.77;5.40;;;;;;;31.19;31.39;99265.19;5031868;28;20068;-47
2022/05/19 08:16:38;;;;;;;12.85;4.50;;;;;;;32.97;29.10;99275.16;5031860;28;20115;-48
2022/05/19 08:19:04;;;;;;;18.75;4.13;;;;;;;34.13;27.91;99270.41;5014139;28;20038;-48
2022/05/19 08:21:31;;;;;;;8.88;3.95;;;;;;;35.27;26.27;99268.50;5014080;28;20053;-49
2022/05/19 08:23:57;;;;;;;17.75;6.20;;;;;;;36.74;24.51;99271.81;5031773;28;20097;-49
2022/05/19 08:26:24;;;;;;;11.75;3.95;;;;;;;37.34;22.96;99261.19;5013984;28;20025;-48
2022/05/19 08:28:51;;;;;;;9.15;3.80;;;;;;;37.50;22.84;99266.50;5031700;28;20380;-48
2022/05/19 08:31:24;;;;;;;12.38;4.22;;;;;;;37.35;22.27;99262.00;5031667;28;20068;-48
2022/05/19 08:33:58;;;;;;;13.10;4.57;;;;;;;36.58;22.89;99263.66;5031724;28;20026;-48
2022/05/19 08:36:25;;;;;;;16.30;5.00;;;;;;;36.18;23.55;99262.88;5031790;28;20025;-48
2022/05/19 08:38:51;;;;;;;13.25;4.13;;;;;;;36.05;23.85;99258.66;5031641;28;20025;-48
2022/05/19 08:41:35;;;;;;;11.00;5.20;;;;;;;36.28;24.02;99257.97;5013828;28;20026;-49
2022/05/19 08:44:08;;;;;;;9.40;3.27;;;;;;;36.45;23.66;99259.53;5013941;28;20064;-48
2022/05/19 08:46:39;;;;;;;9.73;4.65;;;;;;;36.98;23.23;99262.47;5031515;28;20112;-48
2022/05/19 08:49:16;;;;;;;10.05;3.20;;;;;;;37.30;22.83;99259.53;5031607;28;20045;-48
2022/05/19 08:51:59;;;;;;;8.32;3.63;;;;;;;37.79;22.89;99272.44;5031411;28;20057;-48
2022/05/19 08:54:25;;;;;;;8.63;3.38;;;;;;;38.10;21.69;99260.41;5031578;28;20030;-49
2022/05/19 08:57:09;;;;;;;12.50;4.57;;;;;;;37.93;21.53;99258.16;5031427;28;20079;-47
2022/05/19 08:59:44;;;;;;;6.35;3.47;;;;;;;37.41;22.48;99251.50;5031571;28;20036;-48
2022/05/19 09:03:04;;;;;;;11.90;3.05;;;;;;;37.07;22.41;99257.56;5033903;28;20068;-47
2022/05/19 09:05:36;;;;;;;6.53;3.17;;;;;;;36.92;22.80;99244.78;4974322;28;20023;-48
2022/05/19 09:08:19;;;;;;;13.75;3.63;;;;;;;37.09;22.52;99252.53;4974118;28;20041;-48
2022/05/19 09:11:19;;;;;;;6.63;2.70;;;;;;;36.82;22.86;99248.91;4974187;28;20042;-48
2022/05/19 09:14:25;;;;;;;13.40;4.13;;;;;;;36.47;23.69;99249.78;4966458;28;20031;-47
2022/05/19 09:16:55;;;;;;;13.55;2.88;;;;;;;36.05;23.40;99255.16;4935335;29;20052;-49
2022/05/19 09:19:31;;;;;;;16.02;3.65;;;;;;;35.31;24.89;99251.06;4935675;29;20537;-47
2022/05/19 09:22:21;;;;;;;12.07;3.55;;;;;;;33.96;25.60;99257.03;4919482;29;20162;-48
2022/05/19 09:24:50;;;;;;;8.60;3.00;;;;;;;33.01;27.24;99259.78;4935538;29;20040;-49
2022/05/19 09:27:19;;;;;;;9.68;4.45;;;;;;;32.54;27.82;99257.28;4935378;29;20043;-49
2022/05/19 09:29:52;;;;;;;8.93;3.42;;;;;;;32.06;28.89;99253.22;4935390;29;20466;-49
2022/05/19 09:32:25;;;;;;;6.85;3.38;;;;;;;32.10;29.03;99259.56;4935275;29;20027;-49
2022/05/19 09:35:00;;;;;;;15.95;3.90;;;;;;;32.36;28.96;99256.66;4935290;29;20390;-48
2022/05/19 09:37:44;;;;;;;16.40;4.00;;;;;;;32.28;28.87;99255.59;4935367;29;20055;-49
2022/05/19 09:40:12;;;;;;;12.35;3.88;;;;;;;31.69;29.22;99245.56;4935225;29;20540;-49
2022/05/19 09:43:03;;;;;;;11.25;3.75;;;;;;;30.97;30.45;99244.50;4935219;29;20032;-49
2022/05/19 09:45:35;;;;;;;11.70;4.20;;;;;;;30.62;31.14;99244.53;4935181;29;20043;-49
2022/05/19 09:48:06;;;;;;;8.13;3.35;;;;;;;30.33;31.40;99248.69;4989698;28;20045;-47
2022/05/19 09:50:47;;;;;;;12.23;4.30;;;;;;;30.36;31.51;99258.88;5013329;28;20141;-48
2022/05/19 09:53:28;;;;;;;7.43;4.07;;;;;;;30.49;31.37;99250.94;5014713;28;20029;-47
2022/05/19 09:56:03;;;;;;;22.80;6.32;;;;;;;30.26;31.70;99251.88;5014545;28;20029;-52
2022/05/19 09:58:37;;;;;;;10.68;3.42;;;;;;;30.03;32.04;99256.59;5014676;28;20055;-50
2022/05/19 10:01:07;;;;;;;23.20;5.57;;;;;;;30.07;32.44;99249.44;5014573;28;20029;-51
2022/05/19 10:03:50;;;;;;;13.35;4.05;;;;;;;30.40;32.41;99248.22;5014423;28;20249;-50
2022/05/19 10:06:23;;;;;;;21.05;5.10;;;;;;;30.38;32.41;99253.94;5013231;28;20033;-49
2022/05/19 10:08:59;;;;;;;13.70;4.85;;;;;;;30.32;32.53;99257.94;5014352;28;20018;-52
2022/05/19 10:11:29;;;;;;;15.98;4.72;;;;;;;30.41;32.52;99256.03;5012944;28;20030;-50
2022/05/19 10:14:04;;;;;;;35.78;7.43;;;;;;;30.57;32.08;99250.16;5014042;28;20041;-47
2022/05/19 10:16:53;;;;;;;19.00;4.88;;;;;;;31.11;31.16;99255.16;5020103;28;20462;-48
2022/05/19 10:19:40;;;;;;;25.27;6.32;;;;;;;31.21;30.80;99247.50;5033988;28;20025;-49
2022/05/19 10:22:37;;;;;;;26.13;6.10;;;;;;;31.56;30.72;99241.97;5033905;28;20529;-47
2022/05/19 10:25:25;;;;;;;12.57;3.80;;;;;;;31.98;29.92;99239.31;5033838;28;20120;-48
2022/05/19 10:31:40;;;;;;;25.77;7.47;;;;;;;33.62;28.34;99231.88;5033680;28;20051;-49
2022/05/19 10:34:32;;;;;;;36.17;8.45;;;;;;;35.18;26.38;99228.53;5033909;28;20040;-48
2022/05/19 10:37:36;;;;;;;71.55;13.63;;;;;;;37.43;24.42;99222.59;5033626;28;20047;-48
2022/05/19 10:40:38;;;;;;;48.03;9.43;;;;;;;38.84;21.56;99204.03;5033508;28;20017;-49
2022/05/19 10:43:06;;;;;;;32.47;6.45;;;;;;;38.02;22.57;99230.50;5002663;28;20095;-49
2022/05/19 10:45:50;;;;;;;54.95;9.27;;;;;;;37.32;22.67;99222.41;5015668;28;20022;-48
2022/05/19 10:48:22;;;;;;;;;;;;;;;36.47;23.97;99218.94;5033938;28;20029;-48
2022/05/19 10:51:01;;;;;;;36.95;7.10;;;;;;;36.57;23.71;99218.34;5033137;28;19917;-47
2022/05/19 10:53:46;;;;;;;21.25;4.65;;;;;;;36.32;23.84;99226.03;5033321;28;20406;-48
2022/05/19 10:56:41;;;;;;;31.23;7.35;;;;;;;35.33;24.86;99220.72;5033325;28;20549;-49
2022/05/19 10:59:29;;;;;;;16.05;3.90;;;;;;;34.63;25.79;99221.97;5033209;28;20461;-48
2022/05/19 11:02:15;;;;;;;21.45;4.78;;;;;;;34.35;26.49;99217.34;5033360;28;20517;-48
2022/05/19 11:04:50;;;;;;;19.35;5.55;;;;;;;34.71;26.15;99215.63;5033131;28;20025;-48
2022/05/19 11:07:25;;;;;;;10.32;3.22;;;;;;;34.89;25.77;99209.84;5033086;28;20068;-48
2022/05/19 11:10:15;;;;;;;17.42;3.70;;;;;;;34.76;25.57;99203.69;5032868;28;20109;-48
2022/05/19 11:12:58;;;;;;;18.30;4.38;;;;;;;34.48;26.20;99214.56;5032951;28;20033;-48
2022/05/19 11:15:44;;;;;;;19.60;5.18;;;;;;;34.05;27.03;99207.88;5032934;28;20026;-48
2022/05/19 11:18:22;;;;;;;35.47;6.63;;;;;;;33.21;27.30;99228.22;5032669;28;20047;-48
2022/05/19 11:20:57;;;;;;;19.23;4.97;;;;;;;32.70;28.62;99216.72;5032789;28;20040;-47
2022/05/19 11:23:52;;;;;;;23.45;4.43;;;;;;;32.42;28.73;99226.25;5032361;28;20026;-48
2022/05/19 11:26:38;;;;;;;14.23;4.53;;;;;;;32.63;28.58;99228.94;5014926;28;20025;-48
2022/05/19 11:29:17;;;;;;;11.45;3.60;;;;;;;32.71;28.60;99223.78;5032675;28;20025;-48
2022/05/19 11:31:47;;;;;;;13.43;3.58;;;;;;;32.73;28.92;99224.22;5032757;28;20394;-49
2022/05/19 11:34:23;;;;;;;10.23;3.33;;;;;;;32.19;28.78;99233.13;5032440;28;20033;-49
2022/05/19 11:37:00;;;;;;;26.40;5.57;;;;;;;31.88;29.63;99225.34;5032559;28;20057;-48
2022/05/19 11:39:53;;;;;;;20.08;5.00;;;;;;;31.97;29.72;99226.84;5014776;28;20029;-50
2022/05/19 11:42:38;;;;;;;17.77;3.83;;;;;;;31.94;29.74;99230.25;5032408;28;20062;-49
2022/05/19 11:45:14;;;;;;;12.35;3.33;;;;;;;31.85;29.68;99227.59;5032402;28;20048;-47
2022/05/19 11:56:49;;;;;;;7.50;3.40;;;;;;;32.68;28.39;99219.81;5032438;28;20040;-49
2022/05/19 11:59:16;;;;;;;6.03;2.75;;;;;;;32.47;28.54;99229.88;5014326;28;20086;-49
2022/05/19 12:01:50;;;;;;;15.95;3.83;;;;;;;32.38;29.27;99221.81;5032074;28;20025;-49
2022/05/19 12:04:27;;;;;;;18.00;3.22;;;;;;;32.26;28.65;99230.69;5032014;28;20029;-47
2022/05/19 12:07:07;;;;;;;9.82;2.83;;;;;;;32.02;28.79;99220.50;5031948;28;20029;-48